Time;durP1;ratioP1;P1;durP2;ratioP2;P2;SDS_P1;SDS_P2;PMS_P1;PMS_P2;Temp;Humidity;BMP_temperature;BMP_pressure;BME280_temperature;BME280_humidity;BME280_pressure;Samples;Min_cycle;Max_cycle;Signal;HPM_P1;HPM_P2
2023/01/24 00:01:07;;;;;;;18.50;12.83;;;;;;;-0.56;61.70;101381.31;10402456;28;20236;-37
2023/01/24 00:06:09;;;;;;;19.90;13.77;;;;;;;-0.18;61.68;101392.66;10401244;28;20239;-37
2023/01/24 00:11:12;;;;;;;16.13;12.17;;;;;;;0.20;61.23;101413.56;10404483;28;20243;-37
2023/01/24 00:16:22;;;;;;;18.43;12.10;;;;;;;-0.08;61.19;101407.06;10401857;28;20270;-35
2023/01/24 00:21:24;;;;;;;17.33;13.00;;;;;;;-0.22;61.79;101411.28;10403870;28;20246;-35
2023/01/24 00:26:26;;;;;;;15.03;11.93;;;;;;;-0.32;61.34;101398.56;10403049;28;20236;-36
2023/01/24 00:31:27;;;;;;;14.80;11.33;;;;;;;-0.23;61.37;101392.00;10396289;28;20258;-35
2023/01/24 00:36:29;;;;;;;17.40;12.20;;;;;;;0.08;60.93;101420.28;10396548;28;20235;-35
2023/01/24 00:41:31;;;;;;;15.77;12.20;;;;;;;-0.43;61.48;101388.56;10403482;28;20235;-35
2023/01/24 00:46:32;;;;;;;16.17;11.90;;;;;;;-0.07;61.26;101406.09;10403327;28;20637;-37
2023/01/24 00:51:34;;;;;;;13.47;11.00;;;;;;;-0.08;60.87;101420.22;10402820;28;20588;-35
2023/01/24 00:56:36;;;;;;;15.90;11.30;;;;;;;-0.09;61.33;101407.13;10406965;28;20240;-36
2023/01/24 01:01:38;;;;;;;14.23;10.67;;;;;;;-0.13;61.22;101422.22;10394572;28;20242;-35
2023/01/24 01:06:40;;;;;;;13.80;10.63;;;;;;;-0.68;62.19;101399.34;10402099;28;20786;-34
2023/01/24 01:11:41;;;;;;;13.30;10.53;;;;;;;-0.21;61.16;101405.94;10402391;28;20970;-35
2023/01/24 01:16:43;;;;;;;14.10;10.67;;;;;;;-0.31;61.74;101413.41;10401862;28;20245;-37
2023/01/24 01:21:45;;;;;;;12.67;9.97;;;;;;;-0.54;61.39;101405.78;10400625;28;20242;-36
2023/01/24 01:26:46;;;;;;;12.70;8.80;;;;;;;-0.23;60.47;101420.97;10400553;28;20240;-35
2023/01/24 01:31:48;;;;;;;10.57;8.93;;;;;;;0.19;59.76;101459.28;10391160;28;20241;-34
2023/01/24 01:36:50;;;;;;;12.33;9.80;;;;;;;-0.62;61.00;101398.19;10384616;28;20266;-36
2023/01/24 01:41:52;;;;;;;14.23;9.30;;;;;;;0.02;60.82;101428.50;10400981;28;20724;-35
2023/01/24 01:46:54;;;;;;;12.67;10.07;;;;;;;-1.05;62.06;101395.78;10400646;28;20328;-35
2023/01/24 01:52:02;;;;;;;12.57;10.00;;;;;;;-0.22;60.31;101435.81;10401062;28;20235;-35
2023/01/24 01:57:19;;;;;;;11.53;9.07;;;;;;;-0.25;59.51;101444.72;10399611;28;20236;-35
2023/01/24 02:02:22;;;;;;;12.57;10.20;;;;;;;-0.06;60.61;101449.94;10395268;28;20914;-37
2023/01/24 02:07:45;;;;;;;11.20;9.57;;;;;;;0.34;59.79;101472.59;10389353;28;20232;-34
2023/01/24 02:12:51;;;;;;;13.47;9.30;;;;;;;0.13;59.72;101465.69;10395923;28;20322;-36
2023/01/24 02:17:53;;;;;;;13.67;10.20;;;;;;;0.05;60.35;101469.63;10399795;28;20240;-36
2023/01/24 02:22:58;;;;;;;13.50;10.40;;;;;;;0.52;59.62;101500.66;10399550;28;20228;-36
2023/01/24 02:28:02;;;;;;;13.77;10.73;;;;;;;0.08;60.69;101474.75;10399962;28;20239;-36
2023/01/24 02:33:16;;;;;;;12.83;10.27;;;;;;;0.51;59.48;101520.00;10394307;28;20229;-35
2023/01/24 02:38:25;;;;;;;12.87;9.73;;;;;;;0.58;59.68;101517.94;10397292;28;20244;-35
2023/01/24 02:43:28;;;;;;;13.80;9.87;;;;;;;-0.46;61.70;101467.59;10397054;28;20906;-34
2023/01/24 02:48:30;;;;;;;12.17;9.83;;;;;;;-0.07;60.60;101478.94;10392595;28;20231;-35
2023/01/24 02:53:31;;;;;;;13.63;10.60;;;;;;;0.00;60.40;101483.00;10398688;28;20231;-35
2023/01/24 02:58:33;;;;;;;12.50;10.03;;;;;;;-0.11;60.93;101472.16;10397411;28;20266;-35
2023/01/24 03:03:35;;;;;;;11.33;9.37;;;;;;;0.61;58.90;101516.03;10393347;28;20235;-35
2023/01/24 03:08:37;;;;;;;13.03;10.77;;;;;;;-0.45;61.26;101463.22;10395856;28;20240;-35
2023/01/24 03:35:01;;;;;;;14.73;10.83;;;;;;;-0.26;61.21;101502.66;10393315;28;20781;-37
2023/01/24 03:40:03;;;;;;;14.13;10.83;;;;;;;-0.85;61.89;101460.59;10396591;28;20236;-35
2023/01/24 03:45:15;;;;;;;14.60;10.07;;;;;;;-0.36;61.21;101477.72;10398334;28;20231;-35
2023/01/24 03:55:38;;;;;;;14.27;11.00;;;;;;;0.15;60.33;101494.56;10394091;28;20236;-37
2023/01/24 04:00:40;;;;;;;14.73;10.73;;;;;;;-0.11;60.55;101480.88;10392528;28;20251;-35
2023/01/24 04:10:56;;;;;;;14.87;11.07;;;;;;;0.16;60.32;101488.38;10320898;28;20233;-35
2023/01/24 04:15:57;;;;;;;13.07;10.33;;;;;;;0.21;60.55;101496.91;10328138;28;20689;-36
2023/01/24 04:21:03;;;;;;;13.20;10.03;;;;;;;0.37;59.92;101518.06;10325360;28;20567;-35
2023/01/24 04:26:05;;;;;;;13.77;10.13;;;;;;;-0.23;60.25;101476.22;10321714;28;20251;-35
2023/01/24 04:31:08;;;;;;;14.53;10.53;;;;;;;0.12;59.59;101507.88;10304071;28;20240;-35
2023/01/24 04:36:12;;;;;;;15.20;10.50;;;;;;;0.60;59.79;101530.09;10317115;28;20351;-35
2023/01/24 04:41:14;;;;;;;11.97;9.20;;;;;;;0.16;60.00;101511.19;10283236;28;20235;-36
2023/01/24 04:46:16;;;;;;;13.50;10.00;;;;;;;0.02;61.09;101493.44;10268938;28;20235;-36
2023/01/24 04:51:17;;;;;;;13.83;9.63;;;;;;;0.23;60.33;101504.75;10277206;28;20240;-35
2023/01/24 04:56:19;;;;;;;13.67;10.27;;;;;;;-0.03;60.40;101500.72;10276001;28;20245;-35
2023/01/24 05:01:21;;;;;;;15.53;10.83;;;;;;;-0.32;60.47;101487.16;10276768;28;20252;-35
2023/01/24 05:06:22;;;;;;;12.17;9.57;;;;;;;-0.12;59.75;101516.00;10292888;28;20236;-35
2023/01/24 05:11:25;;;;;;;14.03;10.67;;;;;;;-0.37;60.80;101504.94;10304744;28;20613;-35
2023/01/24 05:16:26;;;;;;;15.40;10.33;;;;;;;-0.08;60.42;101519.34;10295532;28;20229;-35
2023/01/24 05:21:28;;;;;;;13.30;9.50;;;;;;;0.29;59.64;101543.91;10320125;28;20234;-36
2023/01/24 05:26:30;;;;;;;12.03;9.70;;;;;;;0.68;60.06;101566.63;10325037;28;20244;-35
2023/01/24 05:31:32;;;;;;;14.23;10.33;;;;;;;0.13;59.88;101542.03;10336825;28;20775;-35
2023/01/24 05:36:33;;;;;;;14.77;9.63;;;;;;;-0.10;60.21;101534.38;10323873;28;20247;-35
2023/01/24 05:41:35;;;;;;;13.57;9.87;;;;;;;0.37;58.91;101580.44;10303353;28;20232;-35
2023/01/24 05:46:37;;;;;;;14.50;11.10;;;;;;;0.02;60.51;101546.97;10315992;28;20238;-35
2023/01/24 05:51:38;;;;;;;13.30;10.10;;;;;;;1.27;58.29;101630.47;10325155;28;20714;-36
2023/01/24 05:56:41;;;;;;;11.93;9.37;;;;;;;0.82;59.16;101598.41;10318002;28;20241;-35
2023/01/24 06:01:43;;;;;;;13.50;9.70;;;;;;;-0.45;61.03;101524.56;10303289;28;20666;-35
2023/01/24 06:06:44;;;;;;;15.20;11.40;;;;;;;-0.05;60.31;101563.94;10318346;28;20325;-35
2023/01/24 06:11:46;;;;;;;15.43;11.07;;;;;;;0.57;59.28;101606.66;10335009;28;20243;-35
2023/01/24 06:16:48;;;;;;;14.97;10.50;;;;;;;0.35;60.09;101582.28;10358088;28;20601;-36
2023/01/24 06:22:16;;;;;;;13.93;10.77;;;;;;;0.34;59.07;101614.81;10357617;28;20323;-35
2023/01/24 06:27:18;;;;;;;12.53;9.70;;;;;;;0.52;59.29;101618.34;10322052;28;20237;-36
2023/01/24 06:32:46;;;;;;;13.53;10.40;;;;;;;0.82;59.09;101635.31;10352181;28;20836;-35
2023/01/24 06:37:50;;;;;;;13.83;10.57;;;;;;;0.79;58.62;101642.50;10350023;28;20240;-37
2023/01/24 06:42:53;;;;;;;13.03;10.27;;;;;;;-0.44;60.05;101578.84;10351772;28;20731;-35
2023/01/24 06:47:57;;;;;;;12.70;9.93;;;;;;;0.57;59.87;101647.97;10348587;28;20271;-36
2023/01/24 06:53:00;;;;;;;13.83;10.03;;;;;;;0.02;60.30;101615.41;10348617;28;20618;-35
2023/01/24 06:58:03;;;;;;;12.73;9.60;;;;;;;-0.14;60.89;101607.34;10349987;28;20547;-36
2023/01/24 07:03:06;;;;;;;14.00;11.20;;;;;;;-0.45;60.63;101585.06;10354019;28;20307;-35
2023/01/24 07:08:08;;;;;;;14.73;10.50;;;;;;;-0.67;60.91;101577.22;10356378;28;20590;-35
2023/01/24 07:13:10;;;;;;;14.17;11.10;;;;;;;-0.56;61.56;101587.28;10356850;28;20228;-36
2023/01/24 07:18:13;;;;;;;13.43;9.60;;;;;;;1.42;57.82;101727.31;10356211;28;20581;-36
2023/01/24 07:23:20;;;;;;;14.40;10.37;;;;;;;0.45;59.68;101644.97;10354667;28;20230;-36
2023/01/24 07:28:22;;;;;;;13.80;10.53;;;;;;;-0.10;60.50;101619.47;10359061;28;20312;-35
2023/01/24 07:33:24;;;;;;;14.53;11.43;;;;;;;0.26;59.32;101649.44;10356202;28;20264;-36
2023/01/24 07:38:26;;;;;;;14.23;9.40;;;;;;;0.13;58.99;101643.88;10357472;28;20237;-36
2023/01/24 07:43:28;;;;;;;15.60;11.40;;;;;;;0.19;59.66;101655.88;10356944;28;20237;-35
2023/01/24 07:48:30;;;;;;;14.00;10.50;;;;;;;1.12;58.44;101707.69;10349023;28;20232;-36
2023/01/24 07:53:32;;;;;;;13.77;10.43;;;;;;;-0.06;59.76;101642.06;10364857;28;20239;-35
2023/01/24 07:58:34;;;;;;;15.73;10.83;;;;;;;0.62;59.04;101702.16;10362522;28;20244;-35
2023/01/24 08:03:35;;;;;;;14.87;9.20;;;;;;;0.28;59.95;101666.84;10363256;28;20225;-35
2023/01/24 08:08:37;;;;;;;15.10;10.07;;;;;;;1.71;57.58;101776.91;10363712;28;20722;-35
2023/01/24 08:13:39;;;;;;;14.57;11.27;;;;;;;-0.06;60.36;101665.75;10362445;28;20608;-36
2023/01/24 08:18:40;;;;;;;13.33;9.37;;;;;;;0.58;59.34;101697.09;10362569;28;20522;-36
2023/01/24 08:23:42;;;;;;;12.73;10.30;;;;;;;0.53;58.58;101712.25;10362845;28;20361;-35
2023/01/24 08:28:44;;;;;;;14.93;10.10;;;;;;;1.04;58.20;101740.56;10364724;28;20254;-35
2023/01/24 08:33:46;;;;;;;13.93;11.60;;;;;;;-0.06;60.38;101649.97;10355881;28;20233;-36
2023/01/24 08:38:47;;;;;;;14.77;10.93;;;;;;;1.09;59.26;101740.34;10351476;28;20769;-35
2023/01/24 08:43:52;;;;;;;16.17;9.87;;;;;;;1.33;58.45;101763.84;10356630;28;20243;-34
2023/01/24 08:48:53;;;;;;;15.17;11.40;;;;;;;0.49;60.00;101704.53;10358979;28;20232;-35
2023/01/24 08:53:55;;;;;;;15.37;11.30;;;;;;;0.59;59.33;101726.00;10359695;28;20238;-35
2023/01/24 08:58:57;;;;;;;14.73;10.67;;;;;;;1.27;58.90;101780.81;10357493;28;20244;-35
2023/01/24 09:03:59;;;;;;;16.50;11.20;;;;;;;1.08;58.51;101772.06;10358995;28;20241;-35
2023/01/24 09:09:01;;;;;;;13.70;10.53;;;;;;;0.13;59.19;101715.78;10360895;28;20228;-35
2023/01/24 09:14:03;;;;;;;15.27;10.50;;;;;;;0.59;58.75;101754.13;10360544;28;20229;-36
2023/01/24 09:19:04;;;;;;;17.53;11.43;;;;;;;0.92;58.84;101761.41;10359860;28;20237;-35
2023/01/24 09:24:06;;;;;;;15.10;10.90;;;;;;;1.37;58.36;101797.03;10359104;28;20329;-35
2023/01/24 09:29:08;;;;;;;13.43;9.87;;;;;;;0.70;58.22;101770.31;10360092;28;20577;-35
2023/01/24 09:34:12;;;;;;;16.00;10.53;;;;;;;1.43;58.27;101802.88;10356476;28;20287;-37
2023/01/24 09:39:15;;;;;;;14.67;10.63;;;;;;;0.56;59.43;101741.09;10359201;28;20245;-36
2023/01/24 09:44:35;;;;;;;16.43;10.43;;;;;;;1.02;58.31;101794.31;10359017;28;20341;-35
2023/01/24 09:49:42;;;;;;;16.67;11.80;;;;;;;1.02;59.21;101786.41;10355051;28;20241;-35
2023/01/24 09:54:51;;;;;;;15.77;10.63;;;;;;;1.52;58.24;101821.84;10357525;28;20233;-36
2023/01/24 09:59:58;;;;;;;17.37;11.00;;;;;;;1.10;58.70;101799.19;10347257;28;20237;-36
2023/01/24 10:05:00;;;;;;;16.17;10.63;;;;;;;1.14;59.49;101775.25;10357039;28;20245;-35
2023/01/24 10:10:20;;;;;;;16.37;11.50;;;;;;;1.58;58.37;101816.25;10357482;28;20254;-37
2023/01/24 10:15:27;;;;;;;19.43;13.00;;;;;;;0.59;59.47;101746.22;10355635;28;20807;-37
2023/01/24 10:20:36;;;;;;;14.87;11.50;;;;;;;1.73;57.96;101828.69;10357148;28;20243;-37
2023/01/24 10:26:15;;;;;;;18.33;13.00;;;;;;;2.02;57.16;101847.50;10357516;28;20241;-37
2023/01/24 10:31:25;;;;;;;17.80;12.07;;;;;;;1.61;58.28;101795.84;10356625;28;20241;-37
2023/01/24 10:36:42;;;;;;;18.33;12.20;;;;;;;1.29;58.52;101778.06;10356593;28;20233;-37
2023/01/24 10:41:44;;;;;;;16.87;11.87;;;;;;;2.07;58.32;101821.72;10354217;28;20331;-37
2023/01/24 10:47:14;;;;;;;17.17;12.20;;;;;;;1.48;58.42;101788.63;10355299;28;20597;-37
2023/01/24 10:52:19;;;;;;;17.43;11.57;;;;;;;1.22;58.46;101774.91;10352326;28;20236;-36
2023/01/24 10:57:53;;;;;;;14.73;11.13;;;;;;;1.87;57.44;101819.22;10352814;28;20236;-37
2023/01/24 11:06:22;;;;;;;15.53;11.87;;;;;;;0.03;63.72;101721.56;10554430;27;20367;-62
2023/01/24 11:11:28;;;;;;;17.13;11.83;;;;;;;0.39;62.37;101707.63;10429948;28;20278;-61
2023/01/24 11:16:41;;;;;;;16.47;11.60;;;;;;;-0.16;63.67;101685.50;10429208;28;20229;-59
2023/01/24 11:21:52;;;;;;;16.87;11.37;;;;;;;0.66;62.21;101709.00;10419767;28;20237;-63
2023/01/24 11:27:12;;;;;;;16.87;12.47;;;;;;;0.67;61.79;101699.31;10425135;28;20524;-62
2023/01/24 11:32:17;;;;;;;17.60;12.40;;;;;;;1.00;61.86;101714.41;10441568;28;20233;-60
2023/01/24 11:37:53;;;;;;;15.77;12.27;;;;;;;-0.14;62.91;101652.09;10464654;28;20234;-61
2023/01/24 11:43:20;;;;;;;16.10;12.20;;;;;;;0.78;61.29;101693.50;10463820;28;20236;-62
2023/01/24 11:48:45;;;;;;;18.40;12.53;;;;;;;1.24;60.84;101726.41;10463994;28;20238;-59
2023/01/24 11:54:08;;;;;;;16.73;11.27;;;;;;;0.29;61.85;101662.41;10460003;28;20231;-61
2023/01/24 11:59:10;;;;;;;16.40;12.13;;;;;;;0.20;62.55;101660.22;10462020;28;20655;-60
2023/01/24 12:04:45;;;;;;;19.00;12.07;;;;;;;1.12;60.84;101695.38;10463210;28;20223;-59
2023/01/24 12:10:28;;;;;;;16.03;11.40;;;;;;;0.68;60.95;101675.50;10448645;28;20243;-60
2023/01/24 12:16:16;;;;;;;15.47;11.00;;;;;;;0.98;61.75;101685.50;10407214;28;20324;-59
2023/01/24 12:21:18;;;;;;;13.87;11.57;;;;;;;1.14;60.89;101687.38;10394248;28;20314;-60
2023/01/24 12:26:27;;;;;;;17.17;11.23;;;;;;;0.38;61.62;101637.47;10395336;28;20751;-60
2023/01/24 12:31:35;;;;;;;15.80;11.23;;;;;;;1.11;60.00;101695.44;10391613;28;20802;-59
2023/01/24 12:37:14;;;;;;;14.83;11.67;;;;;;;0.83;60.52;101657.22;10402620;28;20236;-62
2023/01/24 12:42:23;;;;;;;18.23;11.93;;;;;;;0.96;60.12;101671.53;10392762;28;20232;-60
2023/01/24 12:47:30;;;;;;;15.93;12.00;;;;;;;1.13;60.16;101670.69;10372233;28;20247;-62
2023/01/24 12:52:50;;;;;;;16.37;11.77;;;;;;;1.20;60.54;101668.59;10371758;28;20251;-60
2023/01/24 12:58:02;;;;;;;18.83;11.43;;;;;;;0.67;61.38;101644.81;10368408;28;20692;-63
2023/01/24 13:03:07;;;;;;;19.07;13.27;;;;;;;1.33;60.32;101679.44;10371627;28;20232;-60
2023/01/24 13:08:14;;;;;;;29.30;16.77;;;;;;;0.76;61.12;101643.50;10372979;28;20332;-60
2023/01/24 13:13:23;;;;;;;106.20;65.90;;;;;;;1.33;61.15;101675.00;10363411;28;20699;-60
2023/01/24 13:18:45;;;;;;;26.43;19.17;;;;;;;0.45;60.83;101639.72;10375006;28;20233;-60
2023/01/24 13:24:06;;;;;;;21.93;15.80;;;;;;;1.13;61.10;101662.78;10369332;28;20274;-60
2023/01/24 13:29:53;;;;;;;17.13;12.57;;;;;;;0.51;61.16;101625.38;10370327;28;20232;-60
2023/01/24 13:34:57;;;;;;;17.40;11.50;;;;;;;1.23;60.24;101682.47;10432840;28;20239;-60
2023/01/24 13:40:04;;;;;;;18.90;13.37;;;;;;;1.26;60.65;101664.81;10395496;28;20224;-59
2023/01/24 13:45:25;;;;;;;15.97;11.87;;;;;;;0.13;62.26;101601.75;10385210;28;20233;-60
2023/01/24 13:50:29;;;;;;;23.33;15.03;;;;;;;0.81;60.81;101657.31;10385660;28;20818;-59
2023/01/24 13:55:30;;;;;;;15.50;11.07;;;;;;;1.27;60.84;101661.22;10428147;28;20246;-60
2023/01/24 14:00:34;;;;;;;22.60;13.97;;;;;;;0.68;62.50;101633.34;10420340;28;20232;-60
2023/01/24 14:05:43;;;;;;;34.97;22.33;;;;;;;0.58;61.74;101629.47;10419950;28;20247;-60
2023/01/24 14:11:09;;;;;;;17.40;12.47;;;;;;;0.29;61.99;101617.66;10418361;28;20251;-59
2023/01/24 14:16:23;;;;;;;26.23;19.00;;;;;;;1.14;60.59;101669.78;10420587;28;20232;-62
2023/01/24 14:21:31;;;;;;;19.70;16.17;;;;;;;0.86;61.10;101657.09;10428730;28;20494;-61
2023/01/24 14:26:34;;;;;;;16.33;12.67;;;;;;;0.41;61.60;101630.25;10430633;28;20305;-59
2023/01/24 14:31:39;;;;;;;15.67;10.63;;;;;;;1.28;60.31;101689.31;10432702;28;20776;-59
2023/01/24 14:36:43;;;;;;;17.47;11.33;;;;;;;1.42;60.38;101693.03;10431208;28;20258;-61
2023/01/24 14:41:48;;;;;;;22.77;16.43;;;;;;;1.39;59.78;101694.97;10432500;28;20232;-59
2023/01/24 14:47:00;;;;;;;13.73;10.33;;;;;;;1.04;60.73;101671.16;10428020;28;20231;-59
2023/01/24 14:52:20;;;;;;;15.83;10.63;;;;;;;1.60;59.98;101708.84;10428017;28;20734;-59
2023/01/24 14:57:31;;;;;;;15.03;10.67;;;;;;;1.15;59.14;101697.00;10427668;28;20782;-59
2023/01/24 15:02:34;;;;;;;16.23;13.17;;;;;;;0.14;61.71;101616.63;10432220;28;20239;-58
2023/01/24 15:07:44;;;;;;;13.00;10.20;;;;;;;0.97;60.16;101702.25;10428936;28;20266;-59
2023/01/24 15:12:55;;;;;;;15.17;10.57;;;;;;;-0.23;61.24;101623.56;10434809;28;20236;-59
2023/01/24 15:18:03;;;;;;;16.40;12.20;;;;;;;0.60;61.51;101667.13;10433784;28;20246;-59
2023/01/24 15:23:19;;;;;;;17.40;11.63;;;;;;;1.16;60.57;101699.56;10427093;28;20232;-59
2023/01/24 15:28:29;;;;;;;14.97;10.70;;;;;;;0.59;60.99;101680.38;10409854;28;20242;-60
2023/01/24 15:33:42;;;;;;;16.70;10.30;;;;;;;0.47;61.45;101676.53;10421708;28;20297;-62
2023/01/24 15:38:54;;;;;;;16.17;10.40;;;;;;;0.84;60.81;101704.59;10422720;28;20240;-62
2023/01/24 15:44:05;;;;;;;15.70;10.63;;;;;;;0.08;61.99;101640.59;10417819;28;20616;-62
2023/01/24 15:49:36;;;;;;;13.63;10.90;;;;;;;0.57;61.32;101677.78;10426332;28;20246;-62
2023/01/24 15:54:39;;;;;;;14.70;9.60;;;;;;;0.53;61.23;101672.72;10435607;28;20603;-60
2023/01/24 15:59:45;;;;;;;23.77;20.90;;;;;;;0.68;60.52;101683.41;10437339;28;20764;-65
2023/01/24 16:04:47;;;;;;;15.07;11.03;;;;;;;0.23;61.78;101663.56;10436158;28;20239;-68
2023/01/24 16:09:49;;;;;;;12.00;9.13;;;;;;;0.76;60.16;101698.84;10438522;28;20220;-71
2023/01/24 16:14:53;;;;;;;15.63;10.47;;;;;;;0.68;59.95;101708.94;10429712;28;20224;-72
2023/01/24 16:20:30;;;;;;;14.33;10.77;;;;;;;0.53;61.57;101678.00;10423399;28;20240;-72
2023/01/24 16:25:34;;;;;;;12.63;9.43;;;;;;;0.82;60.24;101711.75;10431815;28;20232;-68
2023/01/24 16:30:36;;;;;;;15.40;10.57;;;;;;;0.22;61.31;101666.28;10431543;28;20246;-69
2023/01/24 16:35:38;;;;;;;14.27;10.10;;;;;;;0.53;60.45;101709.63;10437771;28;20228;-63
2023/01/24 16:40:40;;;;;;;13.30;10.50;;;;;;;0.55;60.22;101708.63;10432188;28;20242;-65
2023/01/24 16:45:45;;;;;;;16.63;12.50;;;;;;;0.67;60.76;101713.31;10431329;28;20733;-63
2023/01/24 16:50:47;;;;;;;15.50;10.33;;;;;;;1.17;59.34;101763.69;10430357;28;20231;-63
2023/01/24 16:55:56;;;;;;;14.77;10.43;;;;;;;0.21;61.60;101697.03;10434713;28;20246;-63
2023/01/24 17:00:58;;;;;;;14.77;11.23;;;;;;;0.70;60.31;101738.69;10436863;28;20925;-63
2023/01/24 17:05:59;;;;;;;14.37;11.20;;;;;;;1.08;59.81;101766.78;10428083;28;20243;-64
2023/01/24 17:11:05;;;;;;;15.60;10.47;;;;;;;0.48;60.58;101723.03;10437754;28;20234;-66
2023/01/24 17:16:09;;;;;;;16.47;10.57;;;;;;;1.27;60.24;101779.94;10429603;28;20325;-66
2023/01/24 17:21:13;;;;;;;28.43;19.70;;;;;;;0.47;60.86;101710.78;10430070;28;20254;-66
2023/01/24 17:26:16;;;;;;;49.57;43.63;;;;;;;0.50;61.13;101737.81;10432588;28;20239;-64
2023/01/24 17:31:20;;;;;;;17.67;15.77;;;;;;;0.24;60.98;101720.59;10434268;28;20228;-66
2023/01/24 17:36:21;;;;;;;18.57;12.93;;;;;;;0.01;61.67;101718.97;10437575;28;20231;-70
2023/01/24 17:41:23;;;;;;;18.23;13.23;;;;;;;1.33;59.56;101808.69;10436835;28;20243;-64
2023/01/24 17:46:25;;;;;;;15.20;12.63;;;;;;;1.45;59.22;101817.78;10431763;28;20612;-67
2023/01/24 17:51:26;;;;;;;16.43;11.37;;;;;;;0.85;60.50;101763.47;10437441;28;20224;-64
2023/01/24 17:56:29;;;;;;;17.47;12.93;;;;;;;0.75;59.17;101770.97;10436655;28;20243;-66
2023/01/24 18:01:31;;;;;;;17.77;13.47;;;;;;;0.68;61.01;101765.13;10433567;28;20235;-65
2023/01/24 18:06:33;;;;;;;19.40;12.40;;;;;;;1.10;60.19;101800.09;10428368;28;20277;-65
2023/01/24 18:11:36;;;;;;;15.20;10.83;;;;;;;0.38;61.59;101738.41;10434043;28;20254;-65
2023/01/24 18:16:37;;;;;;;18.20;12.83;;;;;;;1.02;60.43;101786.41;10431697;28;20235;-65
2023/01/24 18:21:40;;;;;;;16.23;11.67;;;;;;;0.95;59.59;101791.13;10432341;28;21005;-65
2023/01/24 18:26:42;;;;;;;17.17;12.93;;;;;;;1.28;59.30;101819.44;10434352;28;20239;-65
2023/01/24 18:31:44;;;;;;;16.13;11.40;;;;;;;1.21;59.19;101807.47;10431331;28;20426;-64
2023/01/24 18:36:48;;;;;;;16.10;12.13;;;;;;;0.26;61.99;101733.69;10435888;28;20259;-64
2023/01/24 18:41:49;;;;;;;16.47;11.97;;;;;;;0.83;60.95;101765.31;10434901;28;20725;-64
2023/01/24 18:46:51;;;;;;;18.33;13.00;;;;;;;1.03;60.33;101794.25;10432585;28;20745;-65
2023/01/24 18:51:53;;;;;;;18.43;13.97;;;;;;;1.59;59.28;101826.75;10434531;28;20397;-65
2023/01/24 18:56:54;;;;;;;17.67;11.80;;;;;;;1.52;59.42;101827.09;10430031;28;20242;-65
2023/01/24 19:01:57;;;;;;;17.43;12.93;;;;;;;1.06;60.73;101782.69;10433252;28;20244;-65
2023/01/24 19:07:01;;;;;;;15.43;11.30;;;;;;;0.98;60.51;101790.09;10435047;28;20267;-64
2023/01/24 19:12:03;;;;;;;16.90;12.73;;;;;;;0.86;60.12;101773.06;10431961;28;20234;-66
2023/01/24 19:17:05;;;;;;;16.43;11.20;;;;;;;0.98;61.09;101769.88;10429702;28;20242;-66
2023/01/24 19:22:08;;;;;;;16.07;12.03;;;;;;;1.11;59.75;101803.56;10434448;28;20257;-65
2023/01/24 19:27:10;;;;;;;28.53;22.47;;;;;;;0.66;61.57;101758.19;10439229;28;20242;-66
2023/01/24 19:32:12;;;;;;;77.33;52.40;;;;;;;1.20;60.59;101795.19;10441409;28;20333;-66
2023/01/24 19:37:13;;;;;;;37.03;24.80;;;;;;;0.46;61.48;101732.75;10438031;28;20239;-67
2023/01/24 19:42:15;;;;;;;52.87;33.33;;;;;;;0.19;61.00;101721.72;10441619;28;20419;-67
2023/01/24 19:47:16;;;;;;;17.20;13.00;;;;;;;1.11;60.37;101785.94;10439028;28;20240;-67
2023/01/24 19:52:18;;;;;;;268.83;150.00;;;;;;;1.04;60.63;101779.28;10433365;28;20228;-64
2023/01/24 19:57:22;;;;;;;577.53;359.40;;;;;;;0.58;61.76;101739.25;10429629;28;20567;-67
2023/01/24 20:02:24;;;;;;;71.00;46.27;;;;;;;1.15;60.61;101778.75;10437010;28;20247;-66
2023/01/24 20:07:26;;;;;;;35.80;29.07;;;;;;;0.69;60.64;101747.50;10406215;28;20773;-67
2023/01/24 20:12:28;;;;;;;18.53;16.53;;;;;;;-0.27;62.40;101688.59;10395567;28;20242;-64
2023/01/24 20:17:29;;;;;;;18.97;13.70;;;;;;;0.87;60.76;101758.97;10401149;28;20248;-67
2023/01/24 20:22:31;;;;;;;16.87;11.77;;;;;;;0.80;61.20;101766.31;10398274;28;20553;-67
2023/01/24 20:27:33;;;;;;;14.53;10.10;;;;;;;1.41;60.13;101807.38;10387697;28;20236;-66
2023/01/24 20:32:35;;;;;;;11.60;10.13;;;;;;;0.67;59.84;101755.50;10386596;28;20340;-65
2023/01/24 20:37:36;;;;;;;14.20;12.10;;;;;;;0.78;61.04;101752.38;10386214;28;20244;-65
2023/01/24 20:42:40;;;;;;;14.73;12.37;;;;;;;-0.28;62.01;101693.97;10373249;28;20244;-65
2023/01/24 20:47:42;;;;;;;12.50;10.30;;;;;;;0.34;61.34;101733.31;9480193;28;10000984;-66
2023/01/24 20:52:44;;;;;;;13.70;11.57;;;;;;;0.63;60.43;101755.69;10347088;28;20703;-64
2023/01/24 20:57:45;;;;;;;12.53;11.07;;;;;;;0.76;60.81;101767.38;10348944;28;20753;-65
2023/01/24 21:02:50;;;;;;;15.93;10.93;;;;;;;1.33;59.09;101812.19;10346696;28;20243;-67
2023/01/24 21:07:52;;;;;;;13.83;11.43;;;;;;;0.12;60.58;101734.28;10311027;28;20493;-66
2023/01/24 21:12:54;;;;;;;11.77;9.53;;;;;;;0.37;61.15;101757.75;10343915;28;20246;-66
2023/01/24 21:17:56;;;;;;;13.33;10.47;;;;;;;1.04;59.65;101793.28;10345365;28;20239;-64
2023/01/24 21:22:57;;;;;;;11.87;10.03;;;;;;;1.17;59.19;101811.16;10297210;28;20329;-65
2023/01/24 21:27:59;;;;;;;14.97;10.83;;;;;;;1.05;59.71;101795.03;10290333;28;20245;-65
2023/01/24 21:33:01;;;;;;;16.77;12.93;;;;;;;1.95;57.59;101860.16;10340646;28;20645;-65
2023/01/24 21:38:02;;;;;;;14.53;11.10;;;;;;;1.53;58.71;101824.41;10347683;28;20624;-65
2023/01/24 21:43:04;;;;;;;14.80;11.53;;;;;;;0.90;60.15;101776.41;10378070;28;20236;-65
2023/01/24 21:48:06;;;;;;;15.43;11.27;;;;;;;0.42;61.51;101744.38;10381189;28;20737;-68
2023/01/24 21:54:01;;;;;;;16.83;14.30;;;;;;;0.29;60.49;101733.53;10388192;28;20228;-66
2023/01/24 21:58:29;;;;;;;14.23;11.20;;;;;;;0.95;60.75;101772.66;10379531;28;20267;-66
2023/01/24 22:03:30;;;;;;;16.27;12.83;;;;;;;0.52;61.05;101740.38;10371367;28;20243;-64
2023/01/24 22:08:32;;;;;;;16.90;11.43;;;;;;;0.55;61.04;101752.59;10383363;28;20747;-66
2023/01/24 22:13:34;;;;;;;17.60;13.57;;;;;;;0.94;59.65;101773.56;10376142;28;20727;-65
2023/01/24 22:18:36;;;;;;;13.00;11.00;;;;;;;0.88;59.43;101776.50;10377589;28;20296;-65
2023/01/24 22:23:48;;;;;;;13.53;9.97;;;;;;;0.81;59.87;101765.38;10378433;28;20612;-66
2023/01/24 22:28:50;;;;;;;15.67;10.70;;;;;;;0.14;60.73;101714.03;10370759;28;20231;-65
2023/01/24 22:33:52;;;;;;;16.17;13.07;;;;;;;1.09;59.34;101781.69;10380395;28;20244;-64
2023/01/24 22:38:53;;;;;;;13.30;10.90;;;;;;;0.81;58.77;101760.09;10386852;28;20245;-65
2023/01/24 22:43:55;;;;;;;14.13;12.13;;;;;;;0.27;60.63;101717.78;10374602;28;20240;-66
2023/01/24 22:48:57;;;;;;;18.20;14.87;;;;;;;-0.25;61.29;101685.91;10378325;28;20252;-65
2023/01/24 22:53:58;;;;;;;16.13;12.33;;;;;;;1.43;58.66;101802.88;10380848;28;20705;-65
2023/01/24 22:59:00;;;;;;;16.97;12.03;;;;;;;1.36;59.14;101798.84;10364144;28;20279;-65
2023/01/24 23:04:06;;;;;;;18.50;13.07;;;;;;;1.23;59.41;101777.44;10375300;28;20236;-65
2023/01/24 23:09:08;;;;;;;14.80;10.63;;;;;;;0.84;59.35;101756.47;10378870;28;20243;-67
2023/01/24 23:25:01;;;;;;;14.03;10.90;;;;;;;0.79;60.01;101742.66;10367247;28;20232;-65
2023/01/24 23:30:12;;;;;;;21.53;15.73;;;;;;;0.21;60.47;101697.03;10374592;28;20225;-67
2023/01/24 23:35:14;;;;;;;16.73;11.80;;;;;;;1.46;58.28;101790.50;10379571;28;20250;-66
2023/01/24 23:40:16;;;;;;;19.43;12.63;;;;;;;1.17;57.90;101763.69;10375830;28;20232;-64
2023/01/24 23:45:19;;;;;;;21.30;15.50;;;;;;;0.42;60.31;101718.03;10369688;28;20237;-65
2023/01/24 23:50:21;;;;;;;16.87;12.77;;;;;;;1.09;58.83;101760.59;10374997;28;20343;-65
2023/01/24 23:55:22;;;;;;;17.73;12.00;;;;;;;0.22;60.58;101689.97;10361761;28;20229;-65
